createdAt,value
2023-09-11T00:00:09.562Z,8.10
2023-09-11T00:02:37.761Z,9.50
2023-09-11T00:08:47.378Z,8.65
2023-09-11T00:11:16.856Z,8.25
2023-09-11T00:13:45.028Z,8.77
2023-09-11T00:16:13.082Z,8.85
2023-09-11T00:18:41.476Z,8.05
2023-09-11T00:21:09.871Z,7.30
2023-09-11T00:23:37.967Z,8.32
2023-09-11T00:26:06.129Z,11.82
2023-09-11T00:28:35.617Z,8.10
2023-09-11T00:31:03.694Z,8.30
2023-09-11T00:33:31.867Z,8.10
2023-09-11T00:36:00.190Z,10.50
2023-09-11T00:38:29.006Z,8.45
2023-09-11T00:40:57.074Z,9.05
2023-09-11T00:43:25.166Z,8.40
2023-09-11T00:45:56.428Z,8.20
2023-09-11T00:48:25.327Z,8.38
2023-09-11T00:50:53.637Z,9.80
2023-09-11T00:53:22.902Z,7.65
2023-09-11T00:55:51.094Z,9.23
2023-09-11T00:58:19.406Z,7.20
2023-09-11T01:00:48.224Z,9.40
2023-09-11T01:03:18.478Z,9.65
2023-09-11T01:05:48.329Z,8.82
2023-09-11T01:08:16.552Z,9.45
2023-09-11T01:10:44.761Z,10.02
2023-09-11T01:13:12.831Z,8.57
2023-09-11T01:15:47.854Z,7.22
2023-09-11T01:18:29.470Z,9.27
2023-09-11T01:21:14.754Z,13.35
2023-09-11T01:24:25.524Z,7.85
2023-09-11T01:27:18.778Z,8.55
2023-09-11T01:29:51.268Z,6.85
2023-09-11T01:32:21.429Z,7.20
2023-09-11T01:34:49.605Z,11.30
2023-09-11T01:37:17.687Z,11.38
2023-09-11T01:39:46.087Z,8.60
2023-09-11T01:42:19.890Z,7.00
2023-09-11T01:44:51.556Z,11.93
2023-09-11T01:47:23.942Z,7.13
2023-09-11T01:49:53.918Z,10.50
2023-09-11T01:52:23.036Z,11.13
2023-09-11T01:54:51.987Z,14.07
2023-09-11T01:57:20.578Z,7.28
2023-09-11T01:59:50.022Z,7.28
2023-09-11T02:02:18.600Z,7.57
2023-09-11T02:04:46.997Z,8.13
2023-09-11T02:07:15.698Z,7.35
2023-09-11T02:09:43.775Z,8.20
2023-09-11T02:12:11.958Z,9.07
2023-09-11T02:14:40.093Z,10.43
2023-09-11T02:17:09.498Z,7.95
2023-09-11T02:19:37.580Z,8.23
2023-09-11T02:22:05.949Z,8.07
2023-09-11T02:24:34.149Z,7.05
2023-09-11T02:27:02.245Z,7.63
2023-09-11T02:29:30.458Z,7.57
2023-09-11T02:31:58.668Z,8.45
2023-09-11T02:34:28.345Z,11.18
2023-09-11T02:36:56.408Z,7.72
2023-09-11T02:39:24.553Z,10.65
2023-09-11T02:41:52.671Z,10.05
2023-09-11T02:44:20.882Z,8.13
2023-09-11T02:46:49.002Z,9.32
2023-09-11T02:49:18.687Z,9.73
2023-09-11T02:51:48.452Z,8.65
2023-09-11T02:54:16.570Z,7.05
2023-09-11T02:56:44.736Z,9.98
2023-09-11T02:59:13.336Z,7.55
2023-09-11T03:01:41.494Z,7.53
2023-09-11T03:04:09.690Z,11.63
2023-09-11T03:06:37.760Z,7.38
2023-09-11T03:09:07.422Z,8.98
2023-09-11T03:11:35.586Z,7.05
2023-09-11T03:14:03.822Z,9.88
2023-09-11T03:16:32.087Z,9.13
2023-09-11T03:19:00.302Z,10.73
2023-09-11T03:21:28.531Z,7.93
2023-09-11T03:23:56.688Z,8.05
2023-09-11T03:26:26.573Z,8.15
2023-09-11T03:28:57.184Z,9.10
2023-09-11T03:31:29.621Z,8.55
2023-09-11T03:33:59.354Z,6.90
2023-09-11T03:36:27.576Z,7.97
2023-09-11T03:38:56.173Z,8.15
2023-09-11T03:41:25.836Z,7.40
2023-09-11T03:43:54.265Z,6.53
2023-09-11T03:46:22.504Z,7.80
2023-09-11T03:48:50.825Z,7.28
2023-09-11T03:51:20.502Z,8.05
2023-09-11T03:53:51.499Z,7.10
2023-09-11T03:56:26.269Z,7.85
2023-09-11T03:58:55.287Z,10.63
2023-09-11T04:01:23.456Z,9.52
2023-09-11T04:03:51.837Z,7.20
2023-09-11T04:06:20.511Z,8.95
2023-09-11T04:08:50.138Z,7.65
2023-09-11T04:11:20.183Z,9.10
2023-09-11T04:13:49.640Z,8.20
2023-09-11T04:16:17.974Z,7.72
2023-09-11T04:18:46.673Z,7.28
2023-09-11T04:21:17.359Z,8.98
2023-09-11T04:23:45.685Z,9.50
2023-09-11T04:26:13.869Z,7.32
2023-09-11T04:28:42.064Z,7.50
2023-09-11T04:31:11.833Z,7.85
2023-09-11T04:33:40.035Z,6.03
2023-09-11T04:36:08.686Z,7.30
2023-09-11T04:38:36.975Z,9.35
2023-09-11T04:41:05.386Z,8.00
2023-09-11T04:43:33.583Z,9.35
2023-09-11T04:46:02.091Z,7.07
2023-09-11T04:48:31.782Z,11.48
2023-09-11T04:51:00.181Z,8.88
2023-09-11T04:53:28.383Z,8.88
2023-09-11T04:55:57.928Z,8.63
2023-09-11T04:58:26.970Z,7.05
2023-09-11T05:00:55.836Z,6.18
2023-09-11T05:03:24.570Z,7.63
2023-09-11T05:05:54.182Z,7.47
2023-09-11T05:08:22.825Z,7.07
2023-09-11T05:10:51.040Z,7.18
2023-09-11T05:13:19.954Z,8.07
2023-09-11T05:15:50.092Z,11.88
2023-09-11T05:18:18.693Z,9.20
2023-09-11T05:20:47.569Z,11.18
2023-09-11T05:23:18.935Z,10.15
2023-09-11T05:25:47.269Z,8.23
2023-09-11T05:28:15.400Z,8.30
2023-09-11T05:30:43.424Z,9.93
2023-09-11T05:33:11.962Z,9.25
2023-09-11T05:35:40.212Z,10.50
2023-09-11T05:38:08.332Z,8.40
2023-09-11T05:40:38.036Z,9.63
2023-09-11T05:43:06.334Z,9.20
2023-09-11T05:45:34.702Z,9.23
2023-09-11T05:48:03.114Z,8.23
2023-09-11T05:50:31.299Z,10.25
2023-09-11T05:52:59.436Z,9.48
2023-09-11T05:55:27.530Z,12.13
2023-09-11T05:57:57.210Z,9.27
2023-09-11T06:00:27.620Z,11.15
2023-09-11T06:02:55.991Z,9.95
2023-09-11T06:05:24.417Z,9.18
2023-09-11T06:07:52.826Z,9.00
2023-09-11T06:10:20.874Z,8.93
2023-09-11T06:12:49.108Z,12.27
2023-09-11T06:15:18.676Z,10.73
2023-09-11T06:17:46.845Z,9.65
2023-09-11T06:20:16.898Z,11.27
2023-09-11T06:22:45.554Z,11.75
2023-09-11T06:25:13.794Z,10.32
2023-09-11T06:27:41.939Z,8.43
2023-09-11T06:30:10.882Z,9.70
2023-09-11T06:32:40.500Z,10.00
2023-09-11T06:35:10.972Z,9.30
2023-09-11T06:37:39.076Z,8.63
2023-09-11T06:40:10.399Z,10.25
2023-09-11T06:42:38.959Z,8.35
2023-09-11T06:45:07.817Z,9.05
2023-09-11T06:47:36.231Z,11.75
2023-09-11T06:50:06.236Z,8.68
2023-09-11T06:52:39.399Z,9.23
2023-09-11T06:55:09.045Z,8.63
2023-09-11T06:57:37.109Z,9.95
2023-09-11T07:00:15.028Z,12.02
2023-09-11T07:02:49.454Z,10.77
2023-09-11T07:05:21.317Z,9.88
2023-09-11T07:07:49.632Z,11.18
2023-09-11T07:10:30.213Z,13.45
2023-09-11T07:13:02.748Z,12.00
2023-09-11T07:15:30.792Z,13.40
2023-09-11T07:17:58.888Z,11.27
2023-09-11T07:20:28.918Z,14.15
2023-09-11T07:22:57.218Z,10.15
2023-09-11T07:25:25.576Z,15.98
2023-09-11T07:27:59.402Z,11.13
2023-09-11T07:30:28.518Z,11.93
2023-09-11T07:32:57.039Z,10.18
2023-09-11T07:35:25.334Z,10.65
2023-09-11T07:37:55.040Z,10.98
2023-09-11T07:40:24.114Z,13.52
2023-09-11T07:42:54.111Z,13.60
2023-09-11T07:45:22.496Z,10.52
2023-09-11T07:47:51.674Z,11.45
2023-09-11T07:50:20.634Z,10.23
2023-09-11T07:52:49.086Z,8.52
2023-09-11T07:55:20.502Z,10.32
2023-09-11T07:57:48.846Z,9.25
2023-09-11T08:00:17.225Z,11.55
2023-09-11T08:02:45.814Z,8.98
2023-09-11T08:05:13.982Z,11.73
2023-09-11T08:07:42.059Z,11.98
2023-09-11T08:10:10.953Z,12.35
2023-09-11T08:12:40.338Z,12.20
2023-09-11T08:15:10.172Z,14.05
2023-09-11T08:17:38.291Z,10.63
2023-09-11T08:20:07.912Z,12.27
2023-09-11T08:22:35.930Z,13.50
2023-09-11T08:25:06.509Z,11.57
2023-09-11T08:27:34.734Z,12.50
2023-09-11T08:30:04.295Z,13.88
2023-09-11T08:32:35.092Z,11.25
2023-09-11T08:35:04.172Z,11.15
2023-09-11T08:37:32.402Z,8.63
2023-09-11T08:40:00.946Z,9.07
2023-09-11T08:42:29.188Z,12.20
2023-09-11T08:44:57.435Z,11.80
2023-09-11T08:47:30.786Z,12.43
2023-09-11T08:50:04.525Z,9.45
2023-09-11T08:52:33.646Z,12.43
2023-09-11T08:55:09.237Z,11.65
2023-09-11T08:57:40.734Z,12.07
2023-09-11T09:00:14.814Z,13.23
2023-09-11T09:02:45.253Z,10.25
2023-09-11T09:05:14.592Z,10.57
2023-09-11T09:07:45.039Z,12.38
2023-09-11T09:10:13.776Z,10.45
2023-09-11T09:12:42.497Z,11.45
2023-09-11T09:15:11.697Z,13.95
2023-09-11T09:17:40.276Z,9.75
2023-09-11T09:20:12.498Z,10.05
2023-09-11T09:22:55.928Z,12.00
2023-09-11T09:25:24.406Z,9.27
2023-09-11T09:27:52.528Z,11.60
2023-09-11T09:30:21.776Z,10.88
2023-09-11T09:32:50.994Z,15.32
2023-09-11T09:35:23.132Z,9.18
2023-09-11T09:37:53.131Z,9.70
2023-09-11T09:40:35.266Z,12.02
2023-09-11T09:43:05.590Z,10.98
2023-09-11T09:45:36.806Z,13.07
2023-09-11T09:48:12.237Z,10.98
2023-09-11T09:50:53.966Z,9.90
2023-09-11T09:53:24.046Z,11.00
2023-09-11T09:55:52.162Z,19.25
2023-09-11T09:58:28.350Z,14.43
2023-09-11T10:01:05.712Z,13.57
2023-09-11T10:03:45.861Z,10.13
2023-09-11T10:06:18.949Z,13.68
2023-09-11T10:08:47.567Z,15.38
2023-09-11T10:11:29.124Z,8.88
2023-09-11T10:13:59.219Z,10.63
2023-09-11T10:16:28.812Z,18.08
2023-09-11T10:18:58.578Z,10.02
2023-09-11T10:21:29.232Z,10.23
2023-09-11T10:23:57.977Z,9.43
2023-09-11T10:26:31.337Z,11.48
2023-09-11T10:29:05.142Z,8.88
2023-09-11T10:31:35.146Z,10.77
2023-09-11T10:34:04.405Z,11.02
2023-09-11T10:36:38.647Z,13.23
2023-09-11T10:39:10.966Z,8.10
2023-09-11T10:41:39.649Z,8.63
2023-09-11T10:44:08.077Z,8.20
2023-09-11T10:46:38.172Z,17.88
2023-09-11T10:49:16.499Z,7.03
2023-09-11T10:51:47.311Z,6.63
2023-09-11T10:54:16.615Z,13.20
2023-09-11T10:56:45.053Z,15.60
2023-09-11T10:59:13.435Z,8.85
2023-09-11T11:01:41.623Z,11.40
2023-09-11T11:04:09.895Z,10.02
2023-09-11T11:06:38.358Z,6.72
2023-09-11T11:09:32.341Z,15.32
2023-09-11T11:12:05.783Z,13.70
2023-09-11T11:14:34.089Z,18.63
2023-09-11T11:17:05.778Z,12.68
2023-09-11T11:19:35.615Z,15.80
2023-09-11T11:22:05.428Z,17.83
2023-09-11T11:24:36.948Z,18.38
2023-09-11T11:30:00.216Z,39.22
2023-09-11T11:32:31.953Z,14.80
2023-09-11T11:35:03.833Z,16.20
2023-09-11T11:37:33.320Z,27.75
2023-09-11T11:40:07.597Z,16.63
2023-09-11T11:42:35.843Z,15.25
2023-09-11T11:45:05.788Z,17.40
2023-09-11T11:47:34.270Z,15.70
2023-09-11T11:50:09.730Z,27.85
2023-09-11T11:52:37.872Z,18.70
2023-09-11T11:55:22.145Z,16.23
2023-09-11T11:57:53.474Z,38.30
2023-09-11T12:00:22.393Z,44.75
2023-09-11T12:02:51.343Z,16.65
2023-09-11T12:05:19.930Z,21.08
2023-09-11T12:07:48.242Z,84.28
2023-09-11T12:10:16.363Z,44.65
2023-09-11T12:12:46.809Z,16.83
2023-09-11T12:15:15.147Z,25.27
2023-09-11T12:17:48.113Z,91.32
2023-09-11T12:20:18.385Z,15.98
2023-09-11T12:22:48.285Z,45.67
2023-09-11T12:25:17.414Z,30.00
2023-09-11T12:27:47.333Z,42.65
2023-09-11T12:30:16.321Z,28.40
2023-09-11T12:32:46.335Z,49.83
2023-09-11T12:35:15.554Z,30.83
2023-09-11T12:37:43.832Z,34.78
2023-09-11T12:40:12.668Z,47.88
2023-09-11T12:42:41.255Z,46.60
2023-09-11T12:45:11.922Z,32.13
2023-09-11T12:47:40.212Z,40.17
2023-09-11T12:50:08.952Z,49.25
2023-09-11T12:52:37.737Z,108.55
2023-09-11T12:55:07.195Z,67.35
2023-09-11T12:57:35.298Z,41.05
2023-09-11T13:00:06.455Z,41.72
2023-09-11T13:02:36.163Z,42.22
2023-09-11T13:05:08.412Z,46.35
2023-09-11T13:07:37.366Z,56.35
2023-09-11T13:10:06.498Z,42.15
2023-09-11T13:12:34.736Z,38.75
2023-09-11T13:15:02.867Z,28.15
2023-09-11T13:17:31.259Z,51.28
2023-09-11T13:20:01.244Z,63.75
2023-09-11T13:22:29.385Z,32.17
2023-09-11T13:24:57.483Z,34.35
2023-09-11T13:27:25.668Z,38.15
2023-09-11T13:29:54.088Z,38.67
2023-09-11T13:32:22.334Z,47.78
2023-09-11T13:34:50.535Z,36.88
2023-09-11T13:37:19.994Z,32.92
2023-09-11T13:39:48.110Z,32.70
2023-09-11T13:42:18.631Z,33.97
2023-09-11T13:44:46.799Z,26.17
2023-09-11T13:47:14.894Z,39.70
2023-09-11T13:49:43.038Z,31.67
2023-09-11T13:52:11.096Z,39.65
2023-09-11T13:54:40.474Z,25.50
2023-09-11T13:57:08.697Z,33.42
2023-09-11T13:59:36.768Z,37.65
2023-09-11T14:02:05.096Z,20.67
2023-09-11T14:04:36.037Z,34.65
2023-09-11T14:07:05.203Z,29.73
2023-09-11T14:09:33.514Z,32.72
2023-09-11T14:12:03.158Z,30.85
2023-09-11T14:14:33.020Z,18.58
2023-09-11T14:17:01.086Z,18.65
2023-09-11T14:19:29.164Z,19.73
2023-09-11T14:21:57.248Z,48.88
2023-09-11T14:24:25.345Z,22.52
2023-09-11T14:26:53.637Z,25.15
2023-09-11T14:29:23.140Z,28.33
2023-09-11T14:31:51.965Z,34.42
2023-09-11T14:34:20.121Z,11.38
2023-09-11T14:36:48.267Z,18.13
2023-09-11T14:39:16.431Z,7.20
2023-09-11T14:41:44.812Z,7.15
2023-09-11T14:44:13.594Z,16.30
2023-09-11T14:46:43.532Z,24.50
2023-09-11T14:49:11.645Z,12.85
2023-09-11T14:51:40.056Z,6.70
2023-09-11T14:54:08.385Z,9.27
2023-09-11T14:56:36.526Z,8.52
2023-09-11T14:59:04.815Z,9.73
2023-09-11T15:01:36.257Z,7.60
2023-09-11T15:04:06.217Z,9.32
2023-09-11T15:06:34.996Z,7.18
2023-09-11T15:09:04.600Z,9.45
2023-09-11T15:11:33.036Z,8.35
2023-09-11T15:14:02.469Z,6.72
2023-09-11T15:16:32.299Z,6.88
2023-09-11T15:19:01.062Z,7.38
2023-09-11T15:21:30.643Z,6.75
2023-09-11T15:24:03.737Z,8.90
2023-09-11T15:26:32.028Z,7.03
2023-09-11T15:29:01.095Z,9.38
2023-09-11T15:31:29.316Z,10.68
2023-09-11T15:33:57.393Z,7.55
2023-09-11T15:36:25.982Z,8.80
2023-09-11T15:38:55.993Z,8.63
2023-09-11T15:41:24.474Z,8.23
2023-09-11T15:43:52.533Z,11.30
2023-09-11T15:46:35.114Z,8.43
2023-09-11T15:49:10.212Z,7.53
2023-09-11T15:51:41.494Z,8.57
2023-09-11T15:54:10.955Z,7.47
2023-09-11T15:56:39.292Z,8.00
2023-09-11T15:59:07.374Z,7.95
2023-09-11T16:01:36.774Z,8.52
2023-09-11T16:04:05.445Z,8.68
2023-09-11T16:06:33.610Z,8.32
2023-09-11T16:09:04.535Z,7.65
2023-09-11T16:11:34.008Z,9.38
2023-09-11T16:14:03.714Z,8.68
2023-09-11T16:16:33.516Z,9.15
2023-09-11T16:19:02.585Z,8.07
2023-09-11T16:21:40.292Z,9.38
2023-09-11T16:24:10.996Z,9.95
2023-09-11T16:26:40.634Z,10.38
2023-09-11T16:29:11.288Z,9.75
2023-09-11T16:31:40.123Z,9.68
2023-09-11T16:34:10.479Z,8.30
2023-09-11T16:36:39.185Z,11.80
2023-09-11T16:39:07.718Z,9.20
2023-09-11T16:41:35.974Z,11.13
2023-09-11T16:44:06.014Z,11.70
2023-09-11T16:46:34.472Z,11.13
2023-09-11T16:49:02.689Z,10.15
2023-09-11T16:51:31.352Z,11.73
2023-09-11T16:53:59.505Z,8.73
2023-09-11T16:56:28.328Z,9.80
2023-09-11T16:58:56.438Z,12.75
2023-09-11T17:01:25.924Z,10.13
2023-09-11T17:03:54.911Z,8.88
2023-09-11T17:06:23.270Z,9.98
2023-09-11T17:08:51.968Z,11.95
2023-09-11T17:11:20.520Z,10.73
2023-09-11T17:13:48.764Z,10.45
2023-09-11T17:16:21.586Z,11.32
2023-09-11T17:18:52.405Z,10.63
2023-09-11T17:21:20.560Z,9.82
2023-09-11T17:23:50.738Z,10.50
2023-09-11T17:26:19.792Z,10.40
2023-09-11T17:28:49.143Z,10.20
2023-09-11T17:31:17.916Z,11.85
2023-09-11T17:33:46.530Z,11.30
2023-09-11T17:36:17.223Z,11.93
2023-09-11T17:38:45.620Z,10.52
2023-09-11T17:41:13.989Z,12.57
2023-09-11T17:43:42.130Z,10.30
2023-09-11T17:46:15.810Z,11.82
2023-09-11T17:48:44.851Z,10.70
2023-09-11T17:51:14.114Z,10.30
2023-09-11T17:53:44.141Z,12.73
2023-09-11T17:56:12.460Z,10.35
2023-09-11T17:58:41.074Z,11.98
2023-09-11T18:01:09.619Z,12.07
2023-09-11T18:03:38.042Z,12.05
2023-09-11T18:06:06.696Z,9.70
2023-09-11T18:08:35.010Z,10.93
2023-09-11T18:11:04.800Z,9.75
2023-09-11T18:13:32.991Z,7.97
2023-09-11T18:16:02.561Z,11.60
2023-09-11T18:18:31.131Z,9.82
2023-09-11T18:20:59.811Z,11.30
2023-09-11T18:23:28.273Z,8.98
2023-09-11T18:25:57.406Z,9.30
2023-09-11T18:28:31.480Z,9.63
2023-09-11T18:31:00.044Z,11.35
2023-09-11T18:33:28.462Z,9.63
2023-09-11T18:35:57.648Z,9.07
2023-09-11T18:38:26.954Z,8.18
2023-09-11T18:40:55.446Z,9.45
2023-09-11T18:43:24.082Z,9.05
2023-09-11T18:45:54.240Z,9.38
2023-09-11T18:48:23.192Z,9.15
2023-09-11T18:50:51.849Z,11.07
2023-09-11T18:53:20.302Z,10.45
2023-09-11T18:55:50.355Z,9.52
2023-09-11T18:58:18.700Z,10.43
2023-09-11T19:00:47.262Z,11.18
2023-09-11T19:03:17.023Z,12.25
2023-09-11T19:05:45.588Z,10.00
2023-09-11T19:08:15.014Z,9.18
2023-09-11T19:10:43.556Z,9.98
2023-09-11T19:13:11.822Z,9.55
2023-09-11T19:15:40.062Z,9.45
2023-09-11T19:18:08.496Z,8.85
2023-09-11T19:20:38.457Z,10.98
2023-09-11T19:23:06.810Z,9.30
2023-09-11T19:25:35.467Z,10.43
2023-09-11T19:28:04.723Z,10.18
2023-09-11T19:30:38.070Z,10.05
2023-09-11T19:33:06.738Z,9.82
2023-09-11T19:35:35.219Z,11.68
2023-09-11T19:38:05.291Z,10.32
2023-09-11T19:40:35.240Z,10.38
2023-09-11T19:43:03.608Z,11.18
2023-09-11T19:45:32.165Z,9.63
2023-09-11T19:48:00.628Z,10.93
2023-09-11T19:50:29.042Z,10.55
2023-09-11T19:52:57.479Z,10.98
2023-09-11T19:55:27.712Z,9.35
2023-09-11T19:57:56.252Z,10.85
2023-09-11T20:00:24.706Z,13.40
2023-09-11T20:02:54.005Z,11.73
2023-09-11T20:05:22.690Z,9.88
2023-09-11T20:07:53.013Z,11.20
2023-09-11T20:10:21.999Z,11.10
2023-09-11T20:12:51.614Z,11.18
2023-09-11T20:15:20.118Z,11.75
2023-09-11T20:17:48.893Z,11.13
2023-09-11T20:20:17.408Z,11.20
2023-09-11T20:22:45.995Z,10.80
2023-09-11T20:25:14.615Z,10.23
2023-09-11T20:27:43.610Z,11.57
2023-09-11T20:30:17.644Z,10.27
2023-09-11T20:32:46.227Z,11.85
2023-09-11T20:35:14.553Z,12.52
2023-09-11T20:37:42.826Z,11.30
2023-09-11T20:40:12.260Z,11.70
2023-09-11T20:42:40.548Z,10.55
2023-09-11T20:45:10.382Z,11.30
2023-09-11T20:47:39.929Z,10.50
2023-09-11T20:50:10.857Z,11.18
2023-09-11T20:52:38.992Z,12.15
2023-09-11T20:55:08.744Z,11.68
2023-09-11T20:57:37.011Z,11.35
2023-09-11T21:00:05.884Z,10.75
2023-09-11T21:02:34.789Z,12.13
2023-09-11T21:05:04.446Z,11.70
2023-09-11T21:07:32.588Z,12.52
2023-09-11T21:10:00.724Z,12.07
2023-09-11T21:12:30.752Z,10.95
2023-09-11T21:14:58.982Z,11.18
2023-09-11T21:17:27.295Z,11.75
2023-09-11T21:19:55.490Z,10.32
2023-09-11T21:22:24.901Z,10.73
2023-09-11T21:24:52.969Z,10.80
2023-09-11T21:27:21.296Z,10.35
2023-09-11T21:29:49.425Z,12.57
2023-09-11T21:32:17.498Z,11.65
2023-09-11T21:34:45.571Z,11.20
2023-09-11T21:37:13.665Z,11.07
2023-09-11T21:39:43.618Z,11.98
2023-09-11T21:42:12.066Z,10.55
2023-09-11T21:44:40.322Z,11.55
2023-09-11T21:47:08.747Z,11.65
2023-09-11T21:49:36.933Z,12.38
2023-09-11T21:52:05.683Z,12.88
2023-09-11T21:54:33.797Z,13.95
2023-09-11T21:57:05.749Z,11.93
2023-09-11T21:59:34.125Z,12.73
2023-09-11T22:02:02.262Z,11.25
2023-09-11T22:04:30.439Z,12.70
2023-09-11T22:06:58.904Z,13.38
2023-09-11T22:09:27.166Z,11.05
2023-09-11T22:11:55.335Z,11.63
2023-09-11T22:14:26.014Z,12.80
2023-09-11T22:16:54.256Z,12.88
2023-09-11T22:19:22.425Z,13.27
2023-09-11T22:21:50.601Z,11.90
2023-09-11T22:24:18.750Z,11.82
2023-09-11T22:26:46.924Z,11.50
2023-09-11T22:29:15.012Z,12.57
2023-09-11T22:31:45.132Z,12.27
2023-09-11T22:34:13.354Z,11.23
2023-09-11T22:36:41.742Z,11.98
2023-09-11T22:39:09.867Z,11.25
2023-09-11T22:41:38.870Z,11.95
2023-09-11T22:44:07.075Z,10.50
2023-09-11T22:46:36.360Z,11.52
2023-09-11T22:49:06.090Z,10.50
2023-09-11T22:51:37.682Z,10.07
2023-09-11T22:54:05.972Z,11.45
2023-09-11T22:56:34.914Z,10.73
2023-09-11T22:59:03.096Z,9.93
2023-09-11T23:01:31.606Z,12.55
2023-09-11T23:03:59.799Z,13.32
2023-09-11T23:06:29.338Z,12.20
2023-09-11T23:08:57.842Z,11.20
2023-09-11T23:11:26.019Z,11.43
2023-09-11T23:13:54.170Z,13.27
2023-09-11T23:16:22.315Z,12.63
2023-09-11T23:18:52.918Z,12.70
2023-09-11T23:21:21.247Z,12.35
2023-09-11T23:23:51.814Z,12.27
2023-09-11T23:26:20.995Z,12.02
2023-09-11T23:28:49.065Z,12.00
2023-09-11T23:31:17.199Z,13.35
2023-09-11T23:33:45.768Z,12.60
2023-09-11T23:36:13.896Z,13.10
2023-09-11T23:38:42.548Z,12.77
2023-09-11T23:41:12.202Z,11.52
2023-09-11T23:43:40.323Z,13.23
2023-09-11T23:46:10.634Z,13.50
2023-09-11T23:48:39.114Z,12.02
2023-09-11T23:51:07.362Z,13.30
2023-09-11T23:53:35.449Z,12.50
2023-09-11T23:56:03.721Z,12.60
2023-09-11T23:58:33.271Z,12.02
